sensor_id;sensor_type;location;lat;lon;timestamp;temperature;humidity
17252;DHT22;8742;51.716;8.790;2023-11-22T00:00:14;3.80;99.90
17252;DHT22;8742;51.716;8.790;2023-11-22T00:02:41;3.70;99.90
17252;DHT22;8742;51.716;8.790;2023-11-22T00:05:08;3.60;99.90
17252;DHT22;8742;51.716;8.790;2023-11-22T00:07:36;3.40;99.90
17252;DHT22;8742;51.716;8.790;2023-11-22T00:10:04;3.30;99.90
17252;DHT22;8742;51.716;8.790;2023-11-22T00:12:32;3.30;99.90
17252;DHT22;8742;51.716;8.790;2023-11-22T00:15:02;3.20;99.90
17252;DHT22;8742;51.716;8.790;2023-11-22T00:17:31;3.20;99.90
17252;DHT22;8742;51.716;8.790;2023-11-22T00:19:58;3.10;99.90
17252;DHT22;8742;51.716;8.790;2023-11-22T00:22:26;3.00;99.90
17252;DHT22;8742;51.716;8.790;2023-11-22T00:24:53;3.00;99.90
17252;DHT22;8742;51.716;8.790;2023-11-22T00:27:20;2.90;99.90
17252;DHT22;8742;51.716;8.790;2023-11-22T00:29:48;2.90;99.90
17252;DHT22;8742;51.716;8.790;2023-11-22T00:32:15;2.90;99.90
17252;DHT22;8742;51.716;8.790;2023-11-22T00:34:42;2.80;99.90
17252;DHT22;8742;51.716;8.790;2023-11-22T00:37:09;2.80;99.90
17252;DHT22;8742;51.716;8.790;2023-11-22T00:39:36;2.80;99.90
17252;DHT22;8742;51.716;8.790;2023-11-22T00:42:03;2.80;99.90
17252;DHT22;8742;51.716;8.790;2023-11-22T00:44:30;2.70;99.90
17252;DHT22;8742;51.716;8.790;2023-11-22T00:46:59;2.70;99.90
17252;DHT22;8742;51.716;8.790;2023-11-22T00:49:25;2.70;99.90
17252;DHT22;8742;51.716;8.790;2023-11-22T00:51:52;2.60;99.90
17252;DHT22;8742;51.716;8.790;2023-11-22T00:54:19;2.60;99.90
17252;DHT22;8742;51.716;8.790;2023-11-22T00:56:46;2.50;99.90
17252;DHT22;8742;51.716;8.790;2023-11-22T00:59:13;2.50;99.90
17252;DHT22;8742;51.716;8.790;2023-11-22T01:01:41;2.50;99.90
17252;DHT22;8742;51.716;8.790;2023-11-22T01:04:09;2.40;99.90
17252;DHT22;8742;51.716;8.790;2023-11-22T01:06:37;2.40;99.90
17252;DHT22;8742;51.716;8.790;2023-11-22T01:09:06;2.30;99.90
17252;DHT22;8742;51.716;8.790;2023-11-22T01:11:34;2.30;99.90
17252;DHT22;8742;51.716;8.790;2023-11-22T01:14:01;2.20;99.90
17252;DHT22;8742;51.716;8.790;2023-11-22T01:16:28;2.10;99.90
17252;DHT22;8742;51.716;8.790;2023-11-22T01:18:54;2.00;99.90
17252;DHT22;8742;51.716;8.790;2023-11-22T01:21:22;2.00;99.90
17252;DHT22;8742;51.716;8.790;2023-11-22T01:23:50;1.90;99.90
17252;DHT22;8742;51.716;8.790;2023-11-22T01:26:17;1.80;99.90
17252;DHT22;8742;51.716;8.790;2023-11-22T01:28:44;1.70;99.90
17252;DHT22;8742;51.716;8.790;2023-11-22T01:31:11;1.60;99.90
17252;DHT22;8742;51.716;8.790;2023-11-22T01:33:39;1.60;99.90
17252;DHT22;8742;51.716;8.790;2023-11-22T01:36:06;1.50;99.90
17252;DHT22;8742;51.716;8.790;2023-11-22T01:38:36;1.40;99.90
17252;DHT22;8742;51.716;8.790;2023-11-22T01:41:04;1.40;99.90
17252;DHT22;8742;51.716;8.790;2023-11-22T01:43:31;1.30;99.90
17252;DHT22;8742;51.716;8.790;2023-11-22T01:46:15;1.20;99.90
17252;DHT22;8742;51.716;8.790;2023-11-22T01:48:46;1.20;99.90
17252;DHT22;8742;51.716;8.790;2023-11-22T01:51:13;1.20;99.90
17252;DHT22;8742;51.716;8.790;2023-11-22T01:53:41;1.10;99.90
17252;DHT22;8742;51.716;8.790;2023-11-22T01:56:08;1.10;99.90
17252;DHT22;8742;51.716;8.790;2023-11-22T01:58:35;1.00;99.90
17252;DHT22;8742;51.716;8.790;2023-11-22T02:01:04;0.90;99.90
17252;DHT22;8742;51.716;8.790;2023-11-22T02:03:32;0.90;99.90
17252;DHT22;8742;51.716;8.790;2023-11-22T02:05:59;0.80;99.90
17252;DHT22;8742;51.716;8.790;2023-11-22T02:08:26;0.80;99.90
17252;DHT22;8742;51.716;8.790;2023-11-22T02:11:02;0.80;99.90
17252;DHT22;8742;51.716;8.790;2023-11-22T02:13:29;0.80;99.90
17252;DHT22;8742;51.716;8.790;2023-11-22T02:15:57;0.70;99.90
17252;DHT22;8742;51.716;8.790;2023-11-22T02:18:35;0.70;99.90
17252;DHT22;8742;51.716;8.790;2023-11-22T02:21:02;0.70;99.90
17252;DHT22;8742;51.716;8.790;2023-11-22T02:23:31;0.60;99.90
17252;DHT22;8742;51.716;8.790;2023-11-22T02:25:58;0.60;99.90
17252;DHT22;8742;51.716;8.790;2023-11-22T02:28:26;0.60;99.90
17252;DHT22;8742;51.716;8.790;2023-11-22T02:30:53;0.60;99.90
17252;DHT22;8742;51.716;8.790;2023-11-22T02:33:20;0.60;99.90
17252;DHT22;8742;51.716;8.790;2023-11-22T02:35:47;0.50;99.90
17252;DHT22;8742;51.716;8.790;2023-11-22T02:38:20;0.50;99.90
17252;DHT22;8742;51.716;8.790;2023-11-22T02:40:49;0.50;99.90
17252;DHT22;8742;51.716;8.790;2023-11-22T02:43:16;0.40;99.90
17252;DHT22;8742;51.716;8.790;2023-11-22T02:45:43;0.40;99.90
17252;DHT22;8742;51.716;8.790;2023-11-22T02:48:10;0.30;99.90
17252;DHT22;8742;51.716;8.790;2023-11-22T02:50:37;0.30;99.90
17252;DHT22;8742;51.716;8.790;2023-11-22T02:53:05;0.20;99.90
17252;DHT22;8742;51.716;8.790;2023-11-22T02:55:33;0.10;99.90
17252;DHT22;8742;51.716;8.790;2023-11-22T02:58:01;0.10;99.90
17252;DHT22;8742;51.716;8.790;2023-11-22T03:00:28;0.10;99.90
17252;DHT22;8742;51.716;8.790;2023-11-22T03:02:55;0.00;99.90
17252;DHT22;8742;51.716;8.790;2023-11-22T03:05:22;0.00;99.90
17252;DHT22;8742;51.716;8.790;2023-11-22T03:07:49;0.00;99.90
17252;DHT22;8742;51.716;8.790;2023-11-22T03:10:17;0.10;99.90
17252;DHT22;8742;51.716;8.790;2023-11-22T03:12:44;0.10;99.90
17252;DHT22;8742;51.716;8.790;2023-11-22T03:15:12;0.10;99.90
17252;DHT22;8742;51.716;8.790;2023-11-22T03:17:39;0.10;99.90
17252;DHT22;8742;51.716;8.790;2023-11-22T03:20:07;0.00;99.90
17252;DHT22;8742;51.716;8.790;2023-11-22T03:22:36;0.00;99.90
17252;DHT22;8742;51.716;8.790;2023-11-22T03:25:04;0.00;99.90
17252;DHT22;8742;51.716;8.790;2023-11-22T03:27:32;0.00;99.90
17252;DHT22;8742;51.716;8.790;2023-11-22T03:29:59;0.00;99.90
17252;DHT22;8742;51.716;8.790;2023-11-22T03:32:27;-0.10;99.90
17252;DHT22;8742;51.716;8.790;2023-11-22T03:34:55;-0.10;99.90
17252;DHT22;8742;51.716;8.790;2023-11-22T03:37:22;-0.10;99.90
17252;DHT22;8742;51.716;8.790;2023-11-22T03:39:49;-0.10;99.90
17252;DHT22;8742;51.716;8.790;2023-11-22T03:42:16;-0.10;99.90
17252;DHT22;8742;51.716;8.790;2023-11-22T03:44:43;-0.10;99.90
17252;DHT22;8742;51.716;8.790;2023-11-22T03:47:10;-0.20;99.90
17252;DHT22;8742;51.716;8.790;2023-11-22T03:49:39;-0.30;99.90
17252;DHT22;8742;51.716;8.790;2023-11-22T03:52:06;-0.30;99.90
17252;DHT22;8742;51.716;8.790;2023-11-22T03:54:34;-0.40;99.90
17252;DHT22;8742;51.716;8.790;2023-11-22T03:57:01;-0.40;99.90
17252;DHT22;8742;51.716;8.790;2023-11-22T03:59:28;-0.50;99.90
17252;DHT22;8742;51.716;8.790;2023-11-22T04:01:55;-0.50;99.90
17252;DHT22;8742;51.716;8.790;2023-11-22T04:04:22;-0.50;99.90
17252;DHT22;8742;51.716;8.790;2023-11-22T04:06:51;-0.50;99.90
17252;DHT22;8742;51.716;8.790;2023-11-22T04:09:18;-0.50;99.90
17252;DHT22;8742;51.716;8.790;2023-11-22T04:11:45;-0.60;99.90
17252;DHT22;8742;51.716;8.790;2023-11-22T04:14:13;-0.60;99.90
17252;DHT22;8742;51.716;8.790;2023-11-22T04:16:40;-0.60;99.90
17252;DHT22;8742;51.716;8.790;2023-11-22T04:19:07;-0.60;99.90
17252;DHT22;8742;51.716;8.790;2023-11-22T04:21:34;-0.60;99.90
17252;DHT22;8742;51.716;8.790;2023-11-22T04:24:02;-0.70;99.90
17252;DHT22;8742;51.716;8.790;2023-11-22T04:26:29;-0.70;99.90
17252;DHT22;8742;51.716;8.790;2023-11-22T04:28:56;-0.80;99.90
17252;DHT22;8742;51.716;8.790;2023-11-22T04:31:24;-0.80;99.90
17252;DHT22;8742;51.716;8.790;2023-11-22T04:33:50;-0.80;99.90
17252;DHT22;8742;51.716;8.790;2023-11-22T04:36:18;-0.90;99.90
17252;DHT22;8742;51.716;8.790;2023-11-22T04:38:45;-0.90;99.90
17252;DHT22;8742;51.716;8.790;2023-11-22T04:41:13;-0.90;99.90
17252;DHT22;8742;51.716;8.790;2023-11-22T04:43:40;-1.00;99.90
17252;DHT22;8742;51.716;8.790;2023-11-22T04:46:07;-0.90;99.90
17252;DHT22;8742;51.716;8.790;2023-11-22T04:48:34;-1.00;99.90
17252;DHT22;8742;51.716;8.790;2023-11-22T04:51:02;-1.00;99.90
17252;DHT22;8742;51.716;8.790;2023-11-22T04:53:29;-1.00;99.90
17252;DHT22;8742;51.716;8.790;2023-11-22T04:55:57;-1.00;99.90
17252;DHT22;8742;51.716;8.790;2023-11-22T04:58:26;-1.00;99.90
17252;DHT22;8742;51.716;8.790;2023-11-22T05:00:53;-1.00;99.90
17252;DHT22;8742;51.716;8.790;2023-11-22T05:03:19;-1.10;99.90
17252;DHT22;8742;51.716;8.790;2023-11-22T05:05:46;-1.10;99.90
17252;DHT22;8742;51.716;8.790;2023-11-22T05:08:13;-1.10;99.90
17252;DHT22;8742;51.716;8.790;2023-11-22T05:10:41;-1.10;99.90
17252;DHT22;8742;51.716;8.790;2023-11-22T05:13:08;-1.20;99.90
17252;DHT22;8742;51.716;8.790;2023-11-22T05:15:36;-1.20;99.90
17252;DHT22;8742;51.716;8.790;2023-11-22T05:18:03;-1.20;99.90
17252;DHT22;8742;51.716;8.790;2023-11-22T05:20:31;-1.20;99.90
17252;DHT22;8742;51.716;8.790;2023-11-22T05:22:58;-1.30;99.90
17252;DHT22;8742;51.716;8.790;2023-11-22T05:25:25;-1.20;99.90
17252;DHT22;8742;51.716;8.790;2023-11-22T05:27:52;-1.20;99.90
17252;DHT22;8742;51.716;8.790;2023-11-22T05:30:18;-1.20;99.90
17252;DHT22;8742;51.716;8.790;2023-11-22T05:32:48;-1.20;99.90
17252;DHT22;8742;51.716;8.790;2023-11-22T05:35:14;-1.20;99.90
17252;DHT22;8742;51.716;8.790;2023-11-22T05:37:41;-1.20;99.90
17252;DHT22;8742;51.716;8.790;2023-11-22T05:40:09;-1.20;99.90
17252;DHT22;8742;51.716;8.790;2023-11-22T05:42:36;-1.30;99.90
17252;DHT22;8742;51.716;8.790;2023-11-22T05:45:03;-1.30;99.90
17252;DHT22;8742;51.716;8.790;2023-11-22T05:47:30;-1.40;99.90
17252;DHT22;8742;51.716;8.790;2023-11-22T05:49:58;-1.40;99.90
17252;DHT22;8742;51.716;8.790;2023-11-22T05:52:25;-1.50;99.90
17252;DHT22;8742;51.716;8.790;2023-11-22T05:54:52;-1.50;99.90
17252;DHT22;8742;51.716;8.790;2023-11-22T05:57:19;-1.60;99.90
17252;DHT22;8742;51.716;8.790;2023-11-22T05:59:46;-1.60;99.90
17252;DHT22;8742;51.716;8.790;2023-11-22T06:02:13;-1.60;99.90
17252;DHT22;8742;51.716;8.790;2023-11-22T06:04:40;-1.60;99.90
17252;DHT22;8742;51.716;8.790;2023-11-22T06:07:08;-1.60;99.90
17252;DHT22;8742;51.716;8.790;2023-11-22T06:09:35;-1.60;99.90
17252;DHT22;8742;51.716;8.790;2023-11-22T06:12:03;-1.60;99.90
17252;DHT22;8742;51.716;8.790;2023-11-22T06:14:30;-1.70;99.90
17252;DHT22;8742;51.716;8.790;2023-11-22T06:16:56;-1.60;99.90
17252;DHT22;8742;51.716;8.790;2023-11-22T06:19:23;-1.60;99.90
17252;DHT22;8742;51.716;8.790;2023-11-22T06:21:50;-1.60;99.90
17252;DHT22;8742;51.716;8.790;2023-11-22T06:24:18;-1.60;99.90
17252;DHT22;8742;51.716;8.790;2023-11-22T06:26:45;-1.70;99.90
17252;DHT22;8742;51.716;8.790;2023-11-22T06:29:12;-1.60;99.90
17252;DHT22;8742;51.716;8.790;2023-11-22T06:31:40;-1.60;99.90
17252;DHT22;8742;51.716;8.790;2023-11-22T06:34:07;-1.60;99.90
17252;DHT22;8742;51.716;8.790;2023-11-22T06:36:34;-1.60;99.90
17252;DHT22;8742;51.716;8.790;2023-11-22T06:39:01;-1.60;99.90
17252;DHT22;8742;51.716;8.790;2023-11-22T06:41:31;-1.60;99.90
17252;DHT22;8742;51.716;8.790;2023-11-22T06:43:57;-1.60;99.90
17252;DHT22;8742;51.716;8.790;2023-11-22T06:46:24;-1.60;99.90
17252;DHT22;8742;51.716;8.790;2023-11-22T06:48:51;-1.60;99.90
17252;DHT22;8742;51.716;8.790;2023-11-22T06:51:18;-1.50;99.90
17252;DHT22;8742;51.716;8.790;2023-11-22T06:53:45;-1.50;99.90
17252;DHT22;8742;51.716;8.790;2023-11-22T06:56:12;-1.50;99.90
17252;DHT22;8742;51.716;8.790;2023-11-22T06:58:41;-1.50;99.90
17252;DHT22;8742;51.716;8.790;2023-11-22T07:01:08;-1.50;99.90
17252;DHT22;8742;51.716;8.790;2023-11-22T07:03:36;-1.40;99.90
17252;DHT22;8742;51.716;8.790;2023-11-22T07:06:03;-1.40;99.90
17252;DHT22;8742;51.716;8.790;2023-11-22T07:08:30;-1.40;99.90
17252;DHT22;8742;51.716;8.790;2023-11-22T07:10:57;-1.40;99.90
17252;DHT22;8742;51.716;8.790;2023-11-22T07:13:24;-1.40;99.90
17252;DHT22;8742;51.716;8.790;2023-11-22T07:15:53;-1.40;99.90
17252;DHT22;8742;51.716;8.790;2023-11-22T07:18:20;-1.40;99.90
17252;DHT22;8742;51.716;8.790;2023-11-22T07:20:49;-1.40;99.90
17252;DHT22;8742;51.716;8.790;2023-11-22T07:23:19;-1.40;99.90
17252;DHT22;8742;51.716;8.790;2023-11-22T07:25:46;-1.40;99.90
17252;DHT22;8742;51.716;8.790;2023-11-22T07:28:13;-1.30;99.90
17252;DHT22;8742;51.716;8.790;2023-11-22T07:30:40;-1.30;99.90
17252;DHT22;8742;51.716;8.790;2023-11-22T07:33:09;-1.20;99.90
17252;DHT22;8742;51.716;8.790;2023-11-22T07:35:36;-1.20;99.90
17252;DHT22;8742;51.716;8.790;2023-11-22T07:38:04;-1.10;99.90
17252;DHT22;8742;51.716;8.790;2023-11-22T07:40:33;-1.00;99.90
17252;DHT22;8742;51.716;8.790;2023-11-22T07:43:00;-0.90;99.90
17252;DHT22;8742;51.716;8.790;2023-11-22T07:45:30;-0.90;99.90
17252;DHT22;8742;51.716;8.790;2023-11-22T07:47:57;-0.80;99.90
17252;DHT22;8742;51.716;8.790;2023-11-22T07:50:26;-0.70;99.90
17252;DHT22;8742;51.716;8.790;2023-11-22T07:52:55;-0.60;99.90
17252;DHT22;8742;51.716;8.790;2023-11-22T07:55:22;-0.50;99.90
17252;DHT22;8742;51.716;8.790;2023-11-22T07:57:49;-0.40;99.90
17252;DHT22;8742;51.716;8.790;2023-11-22T08:00:17;-0.30;99.90
17252;DHT22;8742;51.716;8.790;2023-11-22T08:02:45;-0.30;99.90
17252;DHT22;8742;51.716;8.790;2023-11-22T08:05:12;-0.20;99.90
17252;DHT22;8742;51.716;8.790;2023-11-22T08:07:42;-0.10;99.90
17252;DHT22;8742;51.716;8.790;2023-11-22T08:10:11;-0.10;99.90
17252;DHT22;8742;51.716;8.790;2023-11-22T08:12:45;0.00;99.90
17252;DHT22;8742;51.716;8.790;2023-11-22T08:15:13;0.10;99.90
17252;DHT22;8742;51.716;8.790;2023-11-22T08:17:40;0.10;99.90
17252;DHT22;8742;51.716;8.790;2023-11-22T08:20:07;0.20;99.90
17252;DHT22;8742;51.716;8.790;2023-11-22T08:22:38;0.30;99.90
17252;DHT22;8742;51.716;8.790;2023-11-22T08:25:08;0.30;99.90
17252;DHT22;8742;51.716;8.790;2023-11-22T08:27:38;0.40;99.90
17252;DHT22;8742;51.716;8.790;2023-11-22T08:30:07;0.60;99.90
17252;DHT22;8742;51.716;8.790;2023-11-22T08:32:41;0.90;99.90
17252;DHT22;8742;51.716;8.790;2023-11-22T08:35:09;1.70;99.90
17252;DHT22;8742;51.716;8.790;2023-11-22T08:37:40;2.60;99.90
17252;DHT22;8742;51.716;8.790;2023-11-22T08:40:10;3.50;99.90
17252;DHT22;8742;51.716;8.790;2023-11-22T08:42:39;4.50;99.90
17252;DHT22;8742;51.716;8.790;2023-11-22T08:45:08;5.30;99.90
17252;DHT22;8742;51.716;8.790;2023-11-22T08:47:37;5.90;99.90
17252;DHT22;8742;51.716;8.790;2023-11-22T08:50:06;6.60;99.90
17252;DHT22;8742;51.716;8.790;2023-11-22T08:52:33;7.30;99.90
17252;DHT22;8742;51.716;8.790;2023-11-22T08:55:02;7.90;99.90
17252;DHT22;8742;51.716;8.790;2023-11-22T08:57:30;8.40;99.90
17252;DHT22;8742;51.716;8.790;2023-11-22T09:02:31;8.90;99.90
17252;DHT22;8742;51.716;8.790;2023-11-22T09:04:58;8.90;99.90
17252;DHT22;8742;51.716;8.790;2023-11-22T09:07:27;8.80;99.90
17252;DHT22;8742;51.716;8.790;2023-11-22T09:09:55;8.60;99.90
17252;DHT22;8742;51.716;8.790;2023-11-22T09:12:23;8.40;99.90
17252;DHT22;8742;51.716;8.790;2023-11-22T09:14:54;8.40;99.90
17252;DHT22;8742;51.716;8.790;2023-11-22T09:17:20;8.30;99.90
17252;DHT22;8742;51.716;8.790;2023-11-22T09:19:57;8.20;99.90
17252;DHT22;8742;51.716;8.790;2023-11-22T09:22:24;7.90;99.90
17252;DHT22;8742;51.716;8.790;2023-11-22T09:24:52;7.80;99.90
17252;DHT22;8742;51.716;8.790;2023-11-22T09:27:19;7.80;99.90
17252;DHT22;8742;51.716;8.790;2023-11-22T09:29:46;7.70;99.90
17252;DHT22;8742;51.716;8.790;2023-11-22T09:32:19;7.80;99.90
17252;DHT22;8742;51.716;8.790;2023-11-22T09:34:59;7.90;99.90
17252;DHT22;8742;51.716;8.790;2023-11-22T09:37:26;8.10;99.90
17252;DHT22;8742;51.716;8.790;2023-11-22T09:39:54;8.30;99.90
17252;DHT22;8742;51.716;8.790;2023-11-22T09:42:21;8.60;99.90
17252;DHT22;8742;51.716;8.790;2023-11-22T09:44:48;8.90;99.90
17252;DHT22;8742;51.716;8.790;2023-11-22T09:47:17;9.10;99.90
17252;DHT22;8742;51.716;8.790;2023-11-22T09:49:48;9.20;99.90
17252;DHT22;8742;51.716;8.790;2023-11-22T09:52:21;9.30;99.90
17252;DHT22;8742;51.716;8.790;2023-11-22T09:54:50;9.20;99.90
17252;DHT22;8742;51.716;8.790;2023-11-22T09:57:20;9.00;99.90
17252;DHT22;8742;51.716;8.790;2023-11-22T09:59:50;8.80;99.90
17252;DHT22;8742;51.716;8.790;2023-11-22T10:02:20;8.50;99.90
17252;DHT22;8742;51.716;8.790;2023-11-22T10:04:52;8.20;99.90
17252;DHT22;8742;51.716;8.790;2023-11-22T10:07:19;7.90;99.90
17252;DHT22;8742;51.716;8.790;2023-11-22T10:09:46;7.70;99.90
17252;DHT22;8742;51.716;8.790;2023-11-22T10:12:13;7.60;99.90
17252;DHT22;8742;51.716;8.790;2023-11-22T10:14:40;7.50;99.90
17252;DHT22;8742;51.716;8.790;2023-11-22T10:17:07;7.40;99.90
17252;DHT22;8742;51.716;8.790;2023-11-22T10:19:36;7.50;99.90
17252;DHT22;8742;51.716;8.790;2023-11-22T10:22:04;7.40;99.90
17252;DHT22;8742;51.716;8.790;2023-11-22T10:24:33;7.30;99.90
17252;DHT22;8742;51.716;8.790;2023-11-22T10:27:01;7.20;99.90
17252;DHT22;8742;51.716;8.790;2023-11-22T10:29:28;7.20;99.90
17252;DHT22;8742;51.716;8.790;2023-11-22T10:31:55;7.20;99.90
17252;DHT22;8742;51.716;8.790;2023-11-22T10:34:23;7.20;99.90
17252;DHT22;8742;51.716;8.790;2023-11-22T10:36:51;7.30;99.90
17252;DHT22;8742;51.716;8.790;2023-11-22T10:39:19;7.50;99.90
17252;DHT22;8742;51.716;8.790;2023-11-22T10:41:47;7.70;99.90
17252;DHT22;8742;51.716;8.790;2023-11-22T10:44:16;8.10;99.90
17252;DHT22;8742;51.716;8.790;2023-11-22T10:46:43;8.40;99.90
17252;DHT22;8742;51.716;8.790;2023-11-22T10:49:10;8.70;99.90
17252;DHT22;8742;51.716;8.790;2023-11-22T10:51:39;8.90;99.90
17252;DHT22;8742;51.716;8.790;2023-11-22T10:54:08;9.00;99.90
17252;DHT22;8742;51.716;8.790;2023-11-22T10:56:38;9.10;99.90
17252;DHT22;8742;51.716;8.790;2023-11-22T10:59:10;9.10;99.90
17252;DHT22;8742;51.716;8.790;2023-11-22T11:01:43;9.20;99.90
17252;DHT22;8742;51.716;8.790;2023-11-22T11:04:19;9.20;99.90
17252;DHT22;8742;51.716;8.790;2023-11-22T11:06:51;9.20;99.90
17252;DHT22;8742;51.716;8.790;2023-11-22T11:09:19;9.10;99.90
17252;DHT22;8742;51.716;8.790;2023-11-22T11:11:50;8.90;99.90
17252;DHT22;8742;51.716;8.790;2023-11-22T11:14:18;8.70;99.90
17252;DHT22;8742;51.716;8.790;2023-11-22T11:16:46;8.60;99.90
17252;DHT22;8742;51.716;8.790;2023-11-22T11:19:16;8.50;99.90
17252;DHT22;8742;51.716;8.790;2023-11-22T11:21:44;8.50;99.90
17252;DHT22;8742;51.716;8.790;2023-11-22T11:24:10;8.50;99.90
17252;DHT22;8742;51.716;8.790;2023-11-22T11:26:39;8.40;99.90
17252;DHT22;8742;51.716;8.790;2023-11-22T11:29:06;8.40;99.90
17252;DHT22;8742;51.716;8.790;2023-11-22T11:31:34;8.40;99.90
17252;DHT22;8742;51.716;8.790;2023-11-22T11:34:06;8.40;99.90
17252;DHT22;8742;51.716;8.790;2023-11-22T11:36:33;8.50;99.90
17252;DHT22;8742;51.716;8.790;2023-11-22T11:39:01;8.50;99.90
17252;DHT22;8742;51.716;8.790;2023-11-22T11:41:30;8.40;99.90
17252;DHT22;8742;51.716;8.790;2023-11-22T11:44:01;8.50;99.90
17252;DHT22;8742;51.716;8.790;2023-11-22T11:46:29;8.60;99.90
17252;DHT22;8742;51.716;8.790;2023-11-22T11:48:56;9.00;99.90
17252;DHT22;8742;51.716;8.790;2023-11-22T11:51:24;9.40;99.90
17252;DHT22;8742;51.716;8.790;2023-11-22T11:53:52;9.70;99.90
17252;DHT22;8742;51.716;8.790;2023-11-22T11:56:19;10.00;99.90
17252;DHT22;8742;51.716;8.790;2023-11-22T11:58:48;10.10;99.90
17252;DHT22;8742;51.716;8.790;2023-11-22T12:01:18;10.40;99.90
17252;DHT22;8742;51.716;8.790;2023-11-22T12:03:47;10.80;99.90
17252;DHT22;8742;51.716;8.790;2023-11-22T12:06:15;11.50;99.90
17252;DHT22;8742;51.716;8.790;2023-11-22T12:08:41;11.90;99.90
17252;DHT22;8742;51.716;8.790;2023-11-22T12:11:08;12.30;99.90
17252;DHT22;8742;51.716;8.790;2023-11-22T12:13:38;12.50;99.90
17252;DHT22;8742;51.716;8.790;2023-11-22T12:16:09;12.60;99.90
17252;DHT22;8742;51.716;8.790;2023-11-22T12:18:41;12.50;99.90
17252;DHT22;8742;51.716;8.790;2023-11-22T12:21:08;12.50;99.90
17252;DHT22;8742;51.716;8.790;2023-11-22T12:23:38;12.50;99.90
17252;DHT22;8742;51.716;8.790;2023-11-22T12:26:10;12.30;99.90
17252;DHT22;8742;51.716;8.790;2023-11-22T12:28:39;12.20;99.90
17252;DHT22;8742;51.716;8.790;2023-11-22T12:31:07;11.90;99.90
17252;DHT22;8742;51.716;8.790;2023-11-22T12:33:35;11.50;99.90
17252;DHT22;8742;51.716;8.790;2023-11-22T12:36:04;11.20;99.90
17252;DHT22;8742;51.716;8.790;2023-11-22T12:38:31;10.80;99.90
17252;DHT22;8742;51.716;8.790;2023-11-22T12:40:58;10.20;99.90
17252;DHT22;8742;51.716;8.790;2023-11-22T12:43:25;9.60;99.90
17252;DHT22;8742;51.716;8.790;2023-11-22T12:45:58;9.00;99.90
17252;DHT22;8742;51.716;8.790;2023-11-22T12:48:26;8.60;99.90
17252;DHT22;8742;51.716;8.790;2023-11-22T12:50:55;8.40;99.90
17252;DHT22;8742;51.716;8.790;2023-11-22T12:53:24;8.10;99.90
17252;DHT22;8742;51.716;8.790;2023-11-22T12:55:54;7.90;99.90
17252;DHT22;8742;51.716;8.790;2023-11-22T12:58:22;7.70;99.90
17252;DHT22;8742;51.716;8.790;2023-11-22T13:00:50;7.50;99.90
17252;DHT22;8742;51.716;8.790;2023-11-22T13:03:23;7.20;99.90
17252;DHT22;8742;51.716;8.790;2023-11-22T13:05:50;7.00;99.90
17252;DHT22;8742;51.716;8.790;2023-11-22T13:08:18;6.90;99.90
17252;DHT22;8742;51.716;8.790;2023-11-22T13:10:46;6.70;99.90
17252;DHT22;8742;51.716;8.790;2023-11-22T13:13:16;6.60;99.90
17252;DHT22;8742;51.716;8.790;2023-11-22T13:15:43;6.50;99.90
17252;DHT22;8742;51.716;8.790;2023-11-22T13:18:10;6.40;99.90
17252;DHT22;8742;51.716;8.790;2023-11-22T13:20:37;6.30;99.90
17252;DHT22;8742;51.716;8.790;2023-11-22T13:23:06;6.20;99.90
17252;DHT22;8742;51.716;8.790;2023-11-22T13:25:33;6.10;99.90
17252;DHT22;8742;51.716;8.790;2023-11-22T13:28:01;6.00;99.90
17252;DHT22;8742;51.716;8.790;2023-11-22T13:30:30;6.00;99.90
17252;DHT22;8742;51.716;8.790;2023-11-22T13:32:57;5.90;99.90
17252;DHT22;8742;51.716;8.790;2023-11-22T13:35:24;5.90;99.90
17252;DHT22;8742;51.716;8.790;2023-11-22T13:37:53;5.80;99.90
17252;DHT22;8742;51.716;8.790;2023-11-22T13:40:20;5.80;99.90
17252;DHT22;8742;51.716;8.790;2023-11-22T13:42:49;5.70;99.90
17252;DHT22;8742;51.716;8.790;2023-11-22T13:45:20;5.70;99.90
17252;DHT22;8742;51.716;8.790;2023-11-22T13:47:48;5.70;99.90
17252;DHT22;8742;51.716;8.790;2023-11-22T13:50:17;5.70;99.90
17252;DHT22;8742;51.716;8.790;2023-11-22T13:52:44;5.70;99.90
17252;DHT22;8742;51.716;8.790;2023-11-22T13:55:12;5.60;99.90
17252;DHT22;8742;51.716;8.790;2023-11-22T13:57:39;5.60;99.90
17252;DHT22;8742;51.716;8.790;2023-11-22T14:00:07;5.50;99.90
17252;DHT22;8742;51.716;8.790;2023-11-22T14:02:39;5.60;99.90
17252;DHT22;8742;51.716;8.790;2023-11-22T14:05:08;5.50;99.90
17252;DHT22;8742;51.716;8.790;2023-11-22T14:07:38;5.40;99.90
17252;DHT22;8742;51.716;8.790;2023-11-22T14:10:06;5.30;99.90
17252;DHT22;8742;51.716;8.790;2023-11-22T14:12:34;5.30;99.90
17252;DHT22;8742;51.716;8.790;2023-11-22T14:15:01;5.20;99.90
17252;DHT22;8742;51.716;8.790;2023-11-22T14:17:30;5.10;99.90
17252;DHT22;8742;51.716;8.790;2023-11-22T14:19:58;5.10;99.90
17252;DHT22;8742;51.716;8.790;2023-11-22T14:22:25;5.00;99.90
17252;DHT22;8742;51.716;8.790;2023-11-22T14:24:53;4.90;99.90
17252;DHT22;8742;51.716;8.790;2023-11-22T14:27:20;4.90;99.90
17252;DHT22;8742;51.716;8.790;2023-11-22T14:29:47;4.80;99.90
17252;DHT22;8742;51.716;8.790;2023-11-22T14:32:15;4.80;99.90
17252;DHT22;8742;51.716;8.790;2023-11-22T14:34:42;4.70;99.90
17252;DHT22;8742;51.716;8.790;2023-11-22T14:37:11;4.60;99.90
17252;DHT22;8742;51.716;8.790;2023-11-22T14:39:38;4.60;99.90
17252;DHT22;8742;51.716;8.790;2023-11-22T14:42:06;4.50;99.90
17252;DHT22;8742;51.716;8.790;2023-11-22T14:44:33;4.40;99.90
17252;DHT22;8742;51.716;8.790;2023-11-22T14:47:00;4.30;99.90
17252;DHT22;8742;51.716;8.790;2023-11-22T14:49:31;4.20;99.90
17252;DHT22;8742;51.716;8.790;2023-11-22T14:51:58;4.10;99.90
17252;DHT22;8742;51.716;8.790;2023-11-22T14:54:26;4.00;99.90
17252;DHT22;8742;51.716;8.790;2023-11-22T14:56:53;3.90;99.90
17252;DHT22;8742;51.716;8.790;2023-11-22T14:59:21;3.90;99.90
17252;DHT22;8742;51.716;8.790;2023-11-22T15:01:48;3.80;99.90
17252;DHT22;8742;51.716;8.790;2023-11-22T15:04:15;3.70;99.90
17252;DHT22;8742;51.716;8.790;2023-11-22T15:06:43;3.70;99.90
17252;DHT22;8742;51.716;8.790;2023-11-22T15:09:10;3.60;99.90
17252;DHT22;8742;51.716;8.790;2023-11-22T15:11:42;3.60;99.90
17252;DHT22;8742;51.716;8.790;2023-11-22T15:14:08;3.50;99.90
17252;DHT22;8742;51.716;8.790;2023-11-22T15:16:36;3.50;99.90
17252;DHT22;8742;51.716;8.790;2023-11-22T15:19:03;3.50;99.90
17252;DHT22;8742;51.716;8.790;2023-11-22T15:21:32;3.40;99.90
17252;DHT22;8742;51.716;8.790;2023-11-22T15:23:59;3.40;99.90
17252;DHT22;8742;51.716;8.790;2023-11-22T15:26:26;3.30;99.90
17252;DHT22;8742;51.716;8.790;2023-11-22T15:28:55;3.30;99.90
17252;DHT22;8742;51.716;8.790;2023-11-22T15:31:22;3.20;99.90
17252;DHT22;8742;51.716;8.790;2023-11-22T15:33:49;3.20;99.90
17252;DHT22;8742;51.716;8.790;2023-11-22T15:36:17;3.20;99.90
17252;DHT22;8742;51.716;8.790;2023-11-22T15:38:45;3.20;99.90
17252;DHT22;8742;51.716;8.790;2023-11-22T15:41:12;3.20;99.90
17252;DHT22;8742;51.716;8.790;2023-11-22T15:43:39;3.20;99.90
17252;DHT22;8742;51.716;8.790;2023-11-22T15:46:11;3.20;99.90
17252;DHT22;8742;51.716;8.790;2023-11-22T15:48:40;3.10;99.90
17252;DHT22;8742;51.716;8.790;2023-11-22T15:51:07;3.10;99.90
17252;DHT22;8742;51.716;8.790;2023-11-22T15:53:37;3.10;99.90
17252;DHT22;8742;51.716;8.790;2023-11-22T15:56:04;3.10;99.90
17252;DHT22;8742;51.716;8.790;2023-11-22T15:58:33;3.20;99.90
17252;DHT22;8742;51.716;8.790;2023-11-22T16:01:00;3.20;99.90
17252;DHT22;8742;51.716;8.790;2023-11-22T16:03:30;3.20;99.90